Time;durP1;ratioP1;P1;durP2;ratioP2;P2;SDS_P1;SDS_P2;PMS_P1;PMS_P2;Temp;Humidity;BMP_temperature;BMP_pressure;BME280_temperature;BME280_humidity;BME280_pressure;Samples;Min_cycle;Max_cycle;Signal;HPM_P1;HPM_P2
2022/08/26 03:58:30;;;;;;;17.05;7.62;;;;;;;22.33;85.68;100157.66;5606260;31;78703;-57
2022/08/26 04:01:33;;;;;;;16.50;7.97;;;;;;;22.33;85.68;100157.66;5582641;31;33402;-56
2022/08/26 04:04:36;;;;;;;15.45;8.35;;;;;;;21.88;87.40;100155.66;5584068;31;33510;-57
2022/08/26 04:07:39;;;;;;;13.02;8.25;;;;;;;21.86;87.69;100155.25;5583976;32;34235;-57
2022/08/26 04:10:42;;;;;;;14.93;7.32;;;;;;;21.86;87.52;100155.25;5583711;31;33543;-57
2022/08/26 04:13:45;;;;;;;13.30;8.07;;;;;;;21.96;87.10;100155.44;5583733;31;33558;-57
2022/08/26 04:16:50;;;;;;;15.68;7.78;;;;;;;21.91;87.37;100155.72;5583625;32;33751;-57
2022/08/26 04:19:52;;;;;;;14.13;7.45;;;;;;;21.86;87.49;100150.56;5583956;31;34225;-56
2022/08/26 04:22:55;;;;;;;13.60;8.40;;;;;;;21.87;87.90;100159.53;5583684;32;33589;-57
2022/08/26 04:26:00;;;;;;;14.05;8.25;;;;;;;21.99;86.99;100162.91;5583649;32;34476;-57
2022/08/26 04:29:08;;;;;;;10.68;7.45;;;;;;;22.01;87.04;100157.84;5583630;32;34270;-57
2022/08/26 04:32:11;;;;;;;13.48;7.90;;;;;;;22.06;86.81;100164.97;5583708;32;33357;-57
2022/08/26 04:35:14;;;;;;;15.55;7.95;;;;;;;22.05;87.30;100157.91;5583564;32;33371;-57
2022/08/26 04:38:18;;;;;;;14.25;6.95;;;;;;;22.18;86.92;100155.84;5583506;31;34228;-57
2022/08/26 04:41:22;;;;;;;16.10;6.85;;;;;;;22.18;86.96;100162.06;5583501;32;33812;-57
2022/08/26 04:44:27;;;;;;;11.52;7.78;;;;;;;22.25;86.40;100162.22;5588057;31;34431;-57
2022/08/26 04:47:29;;;;;;;16.55;7.20;;;;;;;22.30;86.32;100158.38;5577713;31;34338;-57
2022/08/26 04:50:33;;;;;;;18.62;7.40;;;;;;;22.40;86.44;100159.72;5575809;32;33677;-57
2022/08/26 04:53:36;;;;;;;12.15;7.87;;;;;;;22.44;86.66;100158.63;5582895;31;34857;-57
2022/08/26 04:56:41;;;;;;;12.48;7.12;;;;;;;22.50;85.39;100159.09;5579219;32;33598;-57
2022/08/26 04:59:44;;;;;;;14.98;6.95;;;;;;;22.63;83.23;100157.75;5582573;31;35094;-57
2022/08/26 05:02:47;;;;;;;22.13;6.80;;;;;;;22.81;81.75;100158.00;5581554;31;33545;-57
2022/08/26 05:05:53;;;;;;;;;;;;;;;22.78;83.40;100157.94;5581637;32;33663;-56
2022/08/26 05:08:55;;;;;;;16.35;7.07;;;;;;;22.89;82.05;100161.66;5570964;32;34621;-57
2022/08/26 05:11:59;;;;;;;15.68;7.35;;;;;;;23.04;81.59;100154.44;5567480;32;33708;-57
2022/08/26 05:15:01;;;;;;;17.80;6.80;;;;;;;23.00;81.19;100154.41;5568354;32;33633;-57
2022/08/26 05:18:06;;;;;;;17.15;7.47;;;;;;;23.05;83.00;100154.09;5567013;32;33551;-57
2022/08/26 05:21:16;;;;;;;18.48;6.78;;;;;;;23.20;82.42;100160.53;5568086;32;34208;-57
2022/08/26 05:24:18;;;;;;;16.12;6.37;;;;;;;23.25;82.53;100159.44;5568130;32;33658;-57
2022/08/26 05:27:20;;;;;;;17.83;7.15;;;;;;;23.32;82.13;100160.31;5568331;32;34264;-57
2022/08/26 05:30:23;;;;;;;17.62;6.45;;;;;;;23.47;81.38;100161.25;5567948;32;33572;-57
2022/08/26 05:33:25;;;;;;;16.50;6.18;;;;;;;23.48;81.71;100159.31;5568971;32;34162;-56
2022/08/26 05:36:29;;;;;;;25.48;8.50;;;;;;;23.53;81.37;100165.25;5568964;32;33803;-57
2022/08/26 05:39:32;;;;;;;35.15;9.20;;;;;;;23.66;80.23;100165.78;5556463;32;33765;-57
2022/08/26 05:42:35;;;;;;;18.80;6.90;;;;;;;23.71;80.82;100167.41;5567294;32;34268;-57
2022/08/26 05:45:40;;;;;;;18.40;5.78;;;;;;;23.83;77.24;100164.44;5567289;32;33223;-57
2022/08/26 05:48:47;;;;;;;17.10;6.22;;;;;;;23.93;72.69;100166.47;5567193;32;33308;-57
2022/08/26 05:51:51;;;;;;;21.05;6.93;;;;;;;24.07;71.87;100169.37;5567834;32;34288;-57
2022/08/26 05:54:54;;;;;;;16.77;5.85;;;;;;;24.24;72.97;100156.19;5564707;32;33717;-57
2022/08/26 05:57:56;;;;;;;17.50;6.65;;;;;;;24.27;71.95;100163.66;5566075;32;34189;-57
2022/08/26 06:01:03;;;;;;;21.98;6.15;;;;;;;24.34;71.34;100171.97;5567450;32;33711;-57
2022/08/26 06:04:06;;;;;;;16.85;6.20;;;;;;;24.44;70.37;100182.25;5562289;32;33645;-57
2022/08/26 06:07:08;;;;;;;21.87;6.75;;;;;;;24.56;69.83;100175.69;5560215;32;34276;-57
2022/08/26 06:10:13;;;;;;;15.70;5.47;;;;;;;24.69;69.37;100173.44;5566939;32;34222;-57
2022/08/26 06:13:34;;;;;;;13.95;5.97;;;;;;;24.78;67.68;100184.84;5568135;32;34310;-57
2022/08/26 06:16:39;;;;;;;18.20;6.30;;;;;;;24.87;66.85;100177.09;5558867;32;33679;-57
2022/08/26 06:19:42;;;;;;;14.57;6.30;;;;;;;24.91;69.01;100182.59;5552818;32;33740;-57
2022/08/26 06:26:05;;;;;;;15.88;6.57;;;;;;;25.03;67.85;100179.50;5567455;32;33612;-57
2022/08/26 06:29:12;;;;;;;16.75;5.85;;;;;;;25.12;68.48;100181.97;5566951;32;34311;-56
2022/08/26 06:32:25;;;;;;;20.88;5.97;;;;;;;25.22;66.26;100181.22;5568072;32;33580;-57
2022/08/26 06:35:27;;;;;;;19.52;6.22;;;;;;;25.27;63.55;100184.41;5563586;32;33690;-57
2022/08/26 06:38:30;;;;;;;17.00;5.65;;;;;;;25.34;63.29;100186.37;5562013;32;34655;-57
2022/08/26 06:41:33;;;;;;;31.12;7.25;;;;;;;25.40;62.17;100178.59;5566012;32;34266;-57
2022/08/26 06:44:35;;;;;;;60.65;8.10;;;;;;;25.45;62.96;100180.94;5568976;32;33701;-57
2022/08/26 06:47:37;;;;;;;22.67;6.62;;;;;;;25.52;63.24;100179.00;5567112;32;34031;-56
2022/08/26 06:50:41;;;;;;;20.25;5.47;;;;;;;25.57;62.59;100185.31;5568137;32;33624;-57
2022/08/26 06:53:45;;;;;;;19.73;5.80;;;;;;;25.60;60.83;100179.84;5569210;32;33611;-57
2022/08/26 06:56:49;;;;;;;16.67;5.20;;;;;;;25.62;58.32;100182.97;5567179;32;33611;-57
2022/08/26 06:59:52;;;;;;;16.85;5.18;;;;;;;25.75;56.34;100175.94;5568026;32;33659;-57
2022/08/26 07:02:54;;;;;;;20.95;6.03;;;;;;;25.75;59.74;100186.13;5567339;32;33619;-57
2022/08/26 07:06:01;;;;;;;15.98;5.45;;;;;;;25.72;57.45;100171.22;5567637;32;33853;-57
2022/08/26 07:09:06;;;;;;;15.43;5.22;;;;;;;25.72;56.59;100176.72;5563965;32;33632;-57
2022/08/26 07:12:11;;;;;;;18.95;6.22;;;;;;;25.84;58.90;100172.87;5567156;32;33711;-57
2022/08/26 07:15:14;;;;;;;23.60;5.37;;;;;;;25.86;57.55;100175.22;5566533;32;33688;-57
2022/08/26 07:18:17;;;;;;;18.00;5.62;;;;;;;25.93;55.35;100180.75;5567211;32;33605;-57
2022/08/26 07:21:23;;;;;;;16.25;5.40;;;;;;;25.96;56.70;100177.19;5565144;32;33972;-57
2022/08/26 07:24:27;;;;;;;17.37;5.15;;;;;;;25.99;54.24;100184.66;5567730;32;34334;-57
2022/08/26 07:27:30;;;;;;;14.77;5.25;;;;;;;25.98;54.63;100178.38;5567014;32;33682;-57
2022/08/26 07:30:37;;;;;;;23.75;5.80;;;;;;;25.99;55.35;100179.16;5566558;32;33631;-57
2022/08/26 07:33:42;;;;;;;20.50;5.70;;;;;;;26.02;54.66;100173.66;5567121;32;34244;-57
2022/08/26 07:36:44;;;;;;;13.98;5.30;;;;;;;26.08;55.20;100168.59;5567012;32;34350;-57
2022/08/26 07:39:47;;;;;;;19.00;5.20;;;;;;;26.24;53.16;100170.97;5567316;32;33443;-57
2022/08/26 07:42:50;;;;;;;18.45;5.32;;;;;;;26.22;54.10;100173.31;5566661;32;33537;-57
2022/08/26 07:45:53;;;;;;;13.68;5.20;;;;;;;26.20;54.24;100173.72;5564980;32;34281;-57
2022/08/26 07:48:57;;;;;;;15.40;5.32;;;;;;;26.25;53.56;100165.06;5566443;32;34332;-57
2022/08/26 07:51:59;;;;;;;16.23;5.97;;;;;;;26.33;53.09;100170.59;5559858;32;33570;-57
2022/08/26 07:55:03;;;;;;;14.27;5.68;;;;;;;26.32;53.75;100178.00;5562362;32;32282;-57
2022/08/26 07:58:05;;;;;;;31.17;7.00;;;;;;;26.34;52.56;100170.19;5565056;32;33543;-57
2022/08/26 08:01:08;;;;;;;15.70;5.97;;;;;;;26.37;55.33;100174.09;5564334;32;34310;-57
2022/08/26 08:04:13;;;;;;;15.27;5.25;;;;;;;26.37;54.00;100174.09;5557066;32;33298;-57
2022/08/26 08:07:15;;;;;;;65.20;8.70;;;;;;;26.37;53.64;100168.63;5563513;32;33723;-57
2022/08/26 08:10:22;;;;;;;36.58;7.10;;;;;;;26.46;54.79;100169.78;5565340;32;33924;-56
2022/08/26 08:13:28;;;;;;;39.97;7.62;;;;;;;26.48;54.05;100163.91;5561049;32;34279;-57
2022/08/26 08:16:30;;;;;;;15.57;5.97;;;;;;;26.50;54.13;100163.53;5561706;32;33677;-56
2022/08/26 08:19:34;;;;;;;18.60;5.60;;;;;;;26.54;54.03;100158.81;5567136;32;34215;-56
2022/08/26 08:22:38;;;;;;;15.00;5.53;;;;;;;26.60;52.46;100158.03;5564493;32;33645;-57
2022/08/26 08:25:41;;;;;;;46.55;8.45;;;;;;;26.63;53.06;100160.00;5558392;32;33697;-57
2022/08/26 08:28:45;;;;;;;12.45;5.47;;;;;;;26.70;58.66;100154.47;5565711;32;33582;-57
2022/08/26 08:31:50;;;;;;;24.08;6.12;;;;;;;26.69;52.44;100150.16;5566199;32;34297;-57
2022/08/26 08:35:01;;;;;;;28.12;6.03;;;;;;;26.78;52.39;100149.75;5565466;32;33760;-57
2022/08/26 08:38:11;;;;;;;155.48;12.15;;;;;;;26.85;50.57;100146.97;5565829;32;33488;-57
2022/08/26 08:41:48;;;;;;;14.55;5.05;;;;;;;26.91;52.18;100139.88;5565983;32;34313;-57
2022/08/26 08:44:56;;;;;;;17.12;5.95;;;;;;;26.91;48.79;100148.13;5567873;32;33607;-57
2022/08/26 08:48:03;;;;;;;17.37;5.20;;;;;;;27.00;49.52;100136.72;5566325;32;33675;-57
2022/08/26 08:51:34;;;;;;;14.00;4.97;;;;;;;27.04;48.98;100132.00;5565803;32;33592;-57
2022/08/26 08:54:37;;;;;;;16.90;5.53;;;;;;;27.15;47.86;100138.28;5556810;32;33800;-58
2022/08/26 08:58:12;;;;;;;10.55;4.68;;;;;;;27.21;46.10;100132.34;5567591;32;33565;-57
2022/08/26 09:01:28;;;;;;;11.12;5.15;;;;;;;27.19;45.93;100134.75;5562785;32;33853;-57
2022/08/26 09:04:50;;;;;;;13.70;4.68;;;;;;;27.26;47.75;100132.75;5568324;32;33466;-57
2022/08/26 09:08:06;;;;;;;14.15;5.37;;;;;;;27.19;45.97;100132.00;5568065;32;33748;-57
2022/08/26 09:11:13;;;;;;;16.27;5.32;;;;;;;27.22;46.53;100122.91;5566979;32;33954;-57
2022/08/26 09:14:16;;;;;;;38.65;6.07;;;;;;;27.31;47.55;100126.03;5564454;32;33676;-57
2022/08/26 09:17:37;;;;;;;15.63;5.80;;;;;;;27.32;46.97;100124.84;5565820;32;33777;-57
2022/08/26 09:21:02;;;;;;;13.32;4.93;;;;;;;27.49;45.09;100121.22;5566928;32;34315;-57
2022/08/26 09:24:05;;;;;;;14.27;5.35;;;;;;;27.50;45.46;100114.53;5565654;32;33723;-57
2022/08/26 09:27:43;;;;;;;16.85;4.97;;;;;;;27.55;45.54;100113.31;5567154;32;33668;-57
2022/08/26 09:31:09;;;;;;;24.20;5.40;;;;;;;27.58;45.42;100113.31;5564008;32;34212;-57
2022/08/26 09:34:19;;;;;;;18.10;5.85;;;;;;;27.64;45.94;100106.16;5560987;32;34446;-57
2022/08/26 09:37:38;;;;;;;15.80;5.28;;;;;;;27.65;45.41;100106.97;5568635;32;33747;-57
2022/08/26 09:40:52;;;;;;;14.25;5.20;;;;;;;27.87;43.27;100102.91;5566920;32;34394;-57
2022/08/26 09:44:02;;;;;;;13.20;5.00;;;;;;;27.89;44.46;100101.72;5565105;32;33856;-57
2022/08/26 09:47:06;;;;;;;14.23;5.30;;;;;;;27.83;45.49;100106.88;5567926;32;33627;-57
2022/08/26 09:50:25;;;;;;;22.48;5.50;;;;;;;27.89;45.20;100101.72;5566029;32;33723;-57
2022/08/26 09:53:35;;;;;;;19.60;5.62;;;;;;;27.88;45.04;100100.94;5566684;32;33728;-58
2022/08/26 09:56:38;;;;;;;10.07;4.97;;;;;;;27.97;44.41;100101.25;5565857;32;33667;-57
2022/08/26 09:59:41;;;;;;;18.00;5.15;;;;;;;28.10;45.33;100096.81;5565711;32;34371;-57
2022/08/26 10:02:44;;;;;;;17.48;5.90;;;;;;;28.08;43.99;100093.72;5566963;32;33730;-58
2022/08/26 10:06:05;;;;;;;15.88;4.60;;;;;;;28.14;43.81;100101.53;5566026;32;33671;-57
2022/08/26 10:09:12;;;;;;;17.40;5.47;;;;;;;28.17;42.96;100090.47;5557632;32;34413;-57
2022/08/26 10:12:20;;;;;;;17.12;5.50;;;;;;;28.14;43.22;100080.25;5568750;32;34443;-57
2022/08/26 10:15:25;;;;;;;17.45;5.03;;;;;;;28.18;44.53;100080.22;5564198;32;33615;-57
2022/08/26 10:18:31;;;;;;;16.98;5.12;;;;;;;28.26;42.77;100085.28;5567803;32;34010;-57
2022/08/26 10:21:44;;;;;;;13.62;4.80;;;;;;;28.38;42.94;100083.19;5568789;32;33521;-57
2022/08/26 10:24:51;;;;;;;20.05;6.03;;;;;;;28.40;44.10;100089.91;5568271;32;34473;-57
2022/08/26 10:28:16;;;;;;;21.20;5.20;;;;;;;28.34;43.03;100084.03;5568239;32;32390;-57
2022/08/26 10:31:37;;;;;;;19.95;4.78;;;;;;;28.30;42.72;100074.22;5568092;32;33473;-58
2022/08/26 10:34:42;;;;;;;20.95;5.03;;;;;;;28.28;43.02;100073.84;5568606;32;34467;-57
2022/08/26 10:37:49;;;;;;;17.50;5.10;;;;;;;28.32;42.83;100071.84;5569299;32;34407;-57
2022/08/26 10:41:01;;;;;;;16.73;5.15;;;;;;;28.38;42.04;100067.44;5567778;32;34361;-57
2022/08/26 10:44:14;;;;;;;19.42;5.43;;;;;;;28.56;42.37;100067.28;5562796;32;33738;-57
2022/08/26 10:47:27;;;;;;;15.70;5.00;;;;;;;28.57;41.60;100068.84;5557199;32;33332;-57
2022/08/26 10:50:42;;;;;;;17.00;5.37;;;;;;;28.67;40.61;100064.41;5567903;32;33510;-57
2022/08/26 10:54:10;;;;;;;22.70;5.03;;;;;;;28.71;40.62;100054.09;5568899;32;33672;-57
2022/08/26 10:57:15;;;;;;;14.60;4.65;;;;;;;28.66;41.40;100060.87;5567101;32;33647;-57
2022/08/26 11:04:37;;;;;;;15.50;4.68;;;;;;;28.63;39.54;100049.88;5568626;32;33354;-57
2022/08/26 11:07:45;;;;;;;17.62;4.70;;;;;;;28.70;38.57;100047.03;5562877;32;34390;-57
2022/08/26 11:10:50;;;;;;;16.55;4.60;;;;;;;28.77;38.94;100045.00;5568397;32;33662;-55
2022/08/26 11:13:55;;;;;;;15.45;4.30;;;;;;;28.74;38.55;100042.25;5568684;32;33697;-55
2022/08/26 11:16:58;;;;;;;;;;;;;;;28.78;38.71;100040.25;5568744;32;33723;-54
2022/08/26 11:20:03;;;;;;;18.37;5.20;;;;;;;28.88;38.89;100039.34;5568540;32;33987;-55
2022/08/26 11:23:36;;;;;;;16.90;4.60;;;;;;;28.87;38.88;100036.97;5568378;32;33623;-55
2022/08/26 11:26:40;;;;;;;;;;;;;;;28.94;38.99;100034.13;5569020;32;33866;-54
2022/08/26 11:30:05;;;;;;;14.50;4.60;;;;;;;28.92;39.84;100025.50;5569379;32;34102;-55
2022/08/26 11:33:46;;;;;;;22.45;4.75;;;;;;;28.97;38.31;100027.78;5568445;32;33425;-55
2022/08/26 11:36:56;;;;;;;17.83;4.70;;;;;;;29.11;38.28;100022.12;5548961;32;33510;-55
2022/08/26 11:40:00;;;;;;;15.40;4.30;;;;;;;29.08;37.60;100016.66;5564532;32;33738;-54
2022/08/26 11:43:07;;;;;;;19.30;4.62;;;;;;;29.08;38.46;100013.91;5568550;32;33673;-54
2022/08/26 11:46:10;;;;;;;;;;;;;;;29.16;38.36;100004.31;5569348;32;34249;-55
2022/08/26 11:49:13;;;;;;;14.20;4.87;;;;;;;29.31;38.44;100004.91;5568996;32;33971;-55
2022/08/26 11:52:21;;;;;;;13.30;5.00;;;;;;;29.45;37.21;100010.19;5552278;32;34284;-55
2022/08/26 11:55:23;;;;;;;17.62;4.87;;;;;;;29.42;37.32;99999.97;5548963;32;33712;-55
2022/08/26 11:58:26;;;;;;;19.85;4.80;;;;;;;29.36;39.10;100002.44;5549147;32;34352;-54
2022/08/26 12:01:34;;;;;;;13.52;4.62;;;;;;;29.37;37.48;99998.50;5548953;32;34369;-55
2022/08/26 12:04:41;;;;;;;15.88;5.07;;;;;;;29.40;38.80;99991.31;5556448;32;33533;-55
2022/08/26 12:07:48;;;;;;;17.48;5.35;;;;;;;29.37;37.67;99994.91;5567133;32;33731;-56
2022/08/26 12:11:08;;;;;;;21.80;4.90;;;;;;;29.40;37.28;99985.81;5566704;32;33508;-55
2022/08/26 12:14:23;;;;;;;16.85;5.62;;;;;;;29.48;38.58;99990.03;5568276;32;34365;-55
2022/08/26 12:17:26;;;;;;;16.10;4.50;;;;;;;29.41;37.80;99982.62;5567855;32;33789;-54
2022/08/26 12:20:46;;;;;;;13.50;4.47;;;;;;;29.40;37.25;99975.53;5570854;32;34458;-55
2022/08/26 12:23:53;;;;;;;14.68;4.78;;;;;;;29.51;38.15;99972.63;5570823;32;34377;-54
2022/08/26 12:27:14;;;;;;;13.40;4.62;;;;;;;29.54;37.41;99973.75;5570767;32;34462;-55
2022/08/26 12:30:23;;;;;;;14.50;4.60;;;;;;;29.47;36.18;99969.13;5570810;32;33830;-55
2022/08/26 12:33:28;;;;;;;1999.90;553.12;;;;;;;29.55;37.17;99956.78;5570089;32;33636;-56
2022/08/26 12:36:52;;;;;;;56.25;10.75;;;;;;;29.55;38.66;99958.75;5570170;32;33626;-56
2022/08/26 12:40:14;;;;;;;15.90;5.47;;;;;;;29.49;38.23;99959.22;5570194;32;33815;-56
2022/08/26 12:43:37;;;;;;;29.35;5.75;;;;;;;29.54;37.15;99954.41;5563387;32;33755;-55
2022/08/26 12:46:39;;;;;;;17.52;4.47;;;;;;;29.56;38.26;99949.25;5569158;32;34950;-55
2022/08/26 12:49:43;;;;;;;19.08;4.90;;;;;;;29.52;36.54;99940.25;5570027;32;33753;-56
2022/08/26 12:53:04;;;;;;;15.50;4.85;;;;;;;29.52;37.01;99943.03;5570383;32;33641;-55
2022/08/26 12:56:26;;;;;;;15.18;4.05;;;;;;;29.58;36.43;99941.34;5555811;32;34483;-55
2022/08/26 12:59:28;;;;;;;18.42;4.75;;;;;;;29.53;35.40;99939.06;5560293;32;33748;-55
2022/08/26 13:02:36;;;;;;;14.02;4.65;;;;;;;29.62;35.34;99934.56;5570625;32;33608;-55
2022/08/26 13:05:38;;;;;;;10.98;4.37;;;;;;;29.58;35.86;99936.59;5569999;32;33719;-55
2022/08/26 13:08:42;;;;;;;13.68;4.60;;;;;;;29.56;34.73;99922.41;5567831;32;34471;-55
2022/08/26 13:11:44;;;;;;;16.20;4.97;;;;;;;29.53;35.54;99917.72;5569395;32;34267;-55
2022/08/26 13:14:46;;;;;;;16.25;4.55;;;;;;;29.64;36.32;99921.12;5568775;32;33430;-55
2022/08/26 13:17:48;;;;;;;12.70;5.12;;;;;;;29.77;35.97;99913.03;5569152;32;33942;-55
2022/08/26 13:20:51;;;;;;;14.05;4.68;;;;;;;29.82;35.48;99909.75;5569771;32;33941;-55
2022/08/26 13:23:53;;;;;;;14.48;4.40;;;;;;;29.82;35.34;99903.47;5570449;32;34246;-55
2022/08/26 13:26:56;;;;;;;11.93;4.75;;;;;;;29.81;35.83;99899.91;5570127;32;33638;-55
2022/08/26 13:29:59;;;;;;;16.67;4.70;;;;;;;29.73;35.77;99890.19;5569020;32;33743;-55
2022/08/26 13:33:01;;;;;;;14.48;4.78;;;;;;;29.85;35.75;99897.88;5566918;32;33654;-55
2022/08/26 13:36:05;;;;;;;14.43;4.78;;;;;;;29.82;35.58;99897.94;5569918;32;33779;-54
2022/08/26 13:39:10;;;;;;;19.25;4.97;;;;;;;29.86;35.12;99888.38;5569365;32;33774;-55
2022/08/26 13:42:12;;;;;;;16.37;5.12;;;;;;;29.77;35.31;99893.69;5569616;32;33729;-54
2022/08/26 13:45:14;;;;;;;11.45;4.87;;;;;;;29.79;35.37;99882.97;5569321;32;33570;-55
2022/08/26 13:48:17;;;;;;;14.40;4.70;;;;;;;29.79;36.64;99882.19;5569262;31;33808;-54
2022/08/26 13:51:25;;;;;;;14.82;5.10;;;;;;;29.80;35.30;99881.78;5569419;32;33639;-54
2022/08/26 13:54:27;;;;;;;20.90;4.80;;;;;;;29.89;35.68;99872.94;5570056;32;33626;-55
2022/08/26 13:57:29;;;;;;;16.48;4.20;;;;;;;29.95;35.76;99871.22;5569773;32;33825;-55
2022/08/26 14:00:32;;;;;;;12.63;4.50;;;;;;;29.88;34.64;99877.69;5569763;32;33736;-54
2022/08/26 14:03:35;;;;;;;13.75;4.62;;;;;;;29.92;35.70;99872.84;5569425;32;33550;-55
2022/08/26 14:06:37;;;;;;;16.95;4.93;;;;;;;29.98;34.81;99864.09;5569861;32;34314;-54
2022/08/26 14:09:39;;;;;;;16.10;4.60;;;;;;;30.00;35.47;99867.97;5568791;32;33705;-54
2022/08/26 14:12:42;;;;;;;18.85;5.00;;;;;;;29.91;35.23;99865.00;5569545;32;33757;-55
2022/08/26 14:15:45;;;;;;;14.57;5.07;;;;;;;29.84;36.84;99868.69;5568705;32;34523;-55
2022/08/26 14:18:48;;;;;;;15.02;4.78;;;;;;;29.85;35.41;99864.72;5569654;32;33630;-55
2022/08/26 14:21:52;;;;;;;19.58;5.10;;;;;;;29.81;36.59;99864.00;5569052;32;34402;-54
2022/08/26 14:24:55;;;;;;;20.88;4.70;;;;;;;29.90;34.08;99871.72;5569378;32;33672;-54
2022/08/26 14:27:58;;;;;;;16.37;5.07;;;;;;;30.03;36.00;99872.63;5568803;32;33809;-54
2022/08/26 14:31:01;;;;;;;14.10;4.62;;;;;;;29.96;34.98;99872.78;5565996;32;33641;-54
2022/08/26 14:34:06;;;;;;;14.50;4.65;;;;;;;29.94;35.72;99881.50;5555558;32;33729;-54
2022/08/26 14:37:08;;;;;;;;;;;;;;;30.21;33.80;99875.09;5569427;32;33745;-54
2022/08/26 14:40:18;;;;;;;15.15;5.10;;;;;;;30.12;33.77;99883.91;5566951;32;33971;-54
